sensor_id;sensor_type;location;lat;lon;timestamp;P1;durP1;ratioP1;P2;durP2;ratioP2
6941;SDS011;3510;43.200;27.920;2023-10-08T06:28:10;4.88;;;4.63;;
6941;SDS011;3510;43.200;27.920;2023-10-08T06:30:39;7.05;;;6.40;;
6941;SDS011;3510;43.200;27.920;2023-10-08T06:33:07;6.57;;;6.15;;
6941;SDS011;3510;43.200;27.920;2023-10-08T06:35:34;5.68;;;5.18;;
6941;SDS011;3510;43.200;27.920;2023-10-08T06:38:02;5.93;;;5.28;;
6941;SDS011;3510;43.200;27.920;2023-10-08T06:40:43;7.93;;;7.20;;
6941;SDS011;3510;43.200;27.920;2023-10-08T06:43:10;6.65;;;6.20;;
6941;SDS011;3510;43.200;27.920;2023-10-08T06:45:40;6.70;;;6.30;;
6941;SDS011;3510;43.200;27.920;2023-10-08T06:48:08;6.00;;;5.60;;
6941;SDS011;3510;43.200;27.920;2023-10-08T06:50:35;6.55;;;6.10;;
6941;SDS011;3510;43.200;27.920;2023-10-08T06:53:04;5.88;;;5.53;;
6941;SDS011;3510;43.200;27.920;2023-10-08T06:55:33;8.07;;;7.43;;
6941;SDS011;3510;43.200;27.920;2023-10-08T06:58:01;7.97;;;7.47;;
6941;SDS011;3510;43.200;27.920;2023-10-08T07:00:42;7.50;;;6.82;;
6941;SDS011;3510;43.200;27.920;2023-10-08T07:03:22;8.98;;;6.25;;
6941;SDS011;3510;43.200;27.920;2023-10-08T07:05:50;7.32;;;6.45;;
6941;SDS011;3510;43.200;27.920;2023-10-08T07:08:24;6.68;;;6.38;;
6941;SDS011;3510;43.200;27.920;2023-10-08T07:10:52;7.57;;;7.05;;
6941;SDS011;3510;43.200;27.920;2023-10-08T07:13:22;7.88;;;7.38;;
6941;SDS011;3510;43.200;27.920;2023-10-08T07:15:49;8.60;;;6.55;;
6941;SDS011;3510;43.200;27.920;2023-10-08T07:18:18;7.65;;;7.10;;
6941;SDS011;3510;43.200;27.920;2023-10-08T07:20:50;12.30;;;7.72;;
6941;SDS011;3510;43.200;27.920;2023-10-08T07:23:19;8.55;;;7.90;;
6941;SDS011;3510;43.200;27.920;2023-10-08T07:25:53;8.98;;;8.05;;
6941;SDS011;3510;43.200;27.920;2023-10-08T07:28:24;9.32;;;8.65;;
6941;SDS011;3510;43.200;27.920;2023-10-08T07:30:52;9.45;;;8.25;;
6941;SDS011;3510;43.200;27.920;2023-10-08T07:33:20;9.13;;;7.85;;
6941;SDS011;3510;43.200;27.920;2023-10-08T07:35:50;13.35;;;8.63;;
6941;SDS011;3510;43.200;27.920;2023-10-08T07:38:22;12.10;;;8.80;;
6941;SDS011;3510;43.200;27.920;2023-10-08T07:40:55;8.60;;;8.00;;
6941;SDS011;3510;43.200;27.920;2023-10-08T07:43:22;9.80;;;8.73;;
6941;SDS011;3510;43.200;27.920;2023-10-08T07:45:49;9.40;;;8.73;;
6941;SDS011;3510;43.200;27.920;2023-10-08T07:48:19;8.77;;;8.38;;
6941;SDS011;3510;43.200;27.920;2023-10-08T07:50:48;8.82;;;8.23;;
6941;SDS011;3510;43.200;27.920;2023-10-08T07:53:16;8.73;;;8.23;;
6941;SDS011;3510;43.200;27.920;2023-10-08T07:55:45;9.23;;;8.65;;
6941;SDS011;3510;43.200;27.920;2023-10-08T07:58:14;10.23;;;9.30;;
6941;SDS011;3510;43.200;27.920;2023-10-08T08:00:42;9.77;;;8.75;;
6941;SDS011;3510;43.200;27.920;2023-10-08T08:03:18;9.23;;;8.35;;
6941;SDS011;3510;43.200;27.920;2023-10-08T08:05:46;13.68;;;9.43;;
6941;SDS011;3510;43.200;27.920;2023-10-08T08:08:14;9.85;;;9.23;;
6941;SDS011;3510;43.200;27.920;2023-10-08T08:10:43;15.93;;;11.20;;
6941;SDS011;3510;43.200;27.920;2023-10-08T08:13:10;11.82;;;10.27;;
6941;SDS011;3510;43.200;27.920;2023-10-08T08:15:40;12.40;;;11.38;;
6941;SDS011;3510;43.200;27.920;2023-10-08T08:18:09;12.90;;;11.55;;
6941;SDS011;3510;43.200;27.920;2023-10-08T08:20:47;11.70;;;10.85;;
6941;SDS011;3510;43.200;27.920;2023-10-08T08:23:14;23.55;;;12.20;;
6941;SDS011;3510;43.200;27.920;2023-10-08T08:25:42;11.88;;;10.88;;
6941;SDS011;3510;43.200;27.920;2023-10-08T08:28:21;12.55;;;11.18;;
6941;SDS011;3510;43.200;27.920;2023-10-08T08:30:51;11.90;;;11.07;;
6941;SDS011;3510;43.200;27.920;2023-10-08T08:33:20;12.18;;;11.45;;
6941;SDS011;3510;43.200;27.920;2023-10-08T08:35:57;24.75;;;12.23;;
6941;SDS011;3510;43.200;27.920;2023-10-08T08:38:25;12.70;;;11.98;;
6941;SDS011;3510;43.200;27.920;2023-10-08T08:41:01;12.45;;;11.65;;
6941;SDS011;3510;43.200;27.920;2023-10-08T08:43:32;12.27;;;11.48;;
6941;SDS011;3510;43.200;27.920;2023-10-08T08:46:05;12.63;;;11.85;;
6941;SDS011;3510;43.200;27.920;2023-10-08T08:48:33;13.90;;;13.02;;
6941;SDS011;3510;43.200;27.920;2023-10-08T08:51:01;12.98;;;11.75;;
6941;SDS011;3510;43.200;27.920;2023-10-08T08:53:30;13.93;;;12.77;;
6941;SDS011;3510;43.200;27.920;2023-10-08T08:55:57;12.02;;;11.52;;
6941;SDS011;3510;43.200;27.920;2023-10-08T08:58:25;12.93;;;12.23;;
6941;SDS011;3510;43.200;27.920;2023-10-08T09:00:52;13.48;;;12.25;;
6941;SDS011;3510;43.200;27.920;2023-10-08T09:03:22;12.40;;;11.82;;
6941;SDS011;3510;43.200;27.920;2023-10-08T09:05:55;11.77;;;11.13;;
6941;SDS011;3510;43.200;27.920;2023-10-08T09:08:22;14.15;;;12.70;;
6941;SDS011;3510;43.200;27.920;2023-10-08T09:10:53;13.35;;;12.65;;
6941;SDS011;3510;43.200;27.920;2023-10-08T09:13:26;13.27;;;12.30;;
6941;SDS011;3510;43.200;27.920;2023-10-08T09:15:56;12.52;;;11.82;;
6941;SDS011;3510;43.200;27.920;2023-10-08T09:18:30;13.70;;;12.70;;
6941;SDS011;3510;43.200;27.920;2023-10-08T09:21:06;13.27;;;12.63;;
6941;SDS011;3510;43.200;27.920;2023-10-08T09:23:38;12.98;;;12.23;;
6941;SDS011;3510;43.200;27.920;2023-10-08T09:26:08;13.50;;;12.80;;
6941;SDS011;3510;43.200;27.920;2023-10-08T09:28:36;13.43;;;12.52;;
6941;SDS011;3510;43.200;27.920;2023-10-08T09:31:10;13.35;;;12.73;;
6941;SDS011;3510;43.200;27.920;2023-10-08T09:33:39;13.48;;;12.60;;
6941;SDS011;3510;43.200;27.920;2023-10-08T09:36:07;13.18;;;12.68;;
6941;SDS011;3510;43.200;27.920;2023-10-08T09:38:36;13.55;;;12.90;;
6941;SDS011;3510;43.200;27.920;2023-10-08T09:41:03;13.52;;;12.38;;
6941;SDS011;3510;43.200;27.920;2023-10-08T09:43:33;13.13;;;12.50;;
6941;SDS011;3510;43.200;27.920;2023-10-08T09:46:03;14.77;;;13.90;;
6941;SDS011;3510;43.200;27.920;2023-10-08T09:48:41;12.90;;;12.32;;
6941;SDS011;3510;43.200;27.920;2023-10-08T09:51:13;13.40;;;12.70;;
6941;SDS011;3510;43.200;27.920;2023-10-08T09:53:46;14.75;;;13.82;;
6941;SDS011;3510;43.200;27.920;2023-10-08T09:56:19;14.10;;;13.40;;
6941;SDS011;3510;43.200;27.920;2023-10-08T09:58:46;13.30;;;12.80;;
6941;SDS011;3510;43.200;27.920;2023-10-08T10:01:16;14.30;;;13.50;;
6941;SDS011;3510;43.200;27.920;2023-10-08T10:03:46;13.50;;;12.90;;
6941;SDS011;3510;43.200;27.920;2023-10-08T10:06:15;14.48;;;13.75;;
6941;SDS011;3510;43.200;27.920;2023-10-08T10:08:44;14.10;;;13.30;;
6941;SDS011;3510;43.200;27.920;2023-10-08T10:11:12;14.23;;;13.43;;
6941;SDS011;3510;43.200;27.920;2023-10-08T10:13:41;13.88;;;13.23;;
6941;SDS011;3510;43.200;27.920;2023-10-08T10:16:10;14.07;;;12.85;;
6941;SDS011;3510;43.200;27.920;2023-10-08T10:18:38;14.85;;;13.93;;
6941;SDS011;3510;43.200;27.920;2023-10-08T10:23:58;14.63;;;14.05;;
6941;SDS011;3510;43.200;27.920;2023-10-08T10:26:26;14.82;;;13.90;;
6941;SDS011;3510;43.200;27.920;2023-10-08T10:31:45;13.68;;;12.75;;
6941;SDS011;3510;43.200;27.920;2023-10-08T10:34:13;14.18;;;13.45;;
6941;SDS011;3510;43.200;27.920;2023-10-08T10:36:43;13.98;;;13.43;;
6941;SDS011;3510;43.200;27.920;2023-10-08T10:39:13;14.75;;;13.63;;
6941;SDS011;3510;43.200;27.920;2023-10-08T10:41:43;14.32;;;13.55;;
6941;SDS011;3510;43.200;27.920;2023-10-08T10:44:10;14.35;;;13.70;;
6941;SDS011;3510;43.200;27.920;2023-10-08T10:46:39;14.63;;;13.93;;
6941;SDS011;3510;43.200;27.920;2023-10-08T10:49:08;15.00;;;14.10;;
6941;SDS011;3510;43.200;27.920;2023-10-08T10:51:45;15.65;;;14.68;;
6941;SDS011;3510;43.200;27.920;2023-10-08T10:54:17;14.63;;;14.02;;
6941;SDS011;3510;43.200;27.920;2023-10-08T10:56:49;16.17;;;14.98;;
6941;SDS011;3510;43.200;27.920;2023-10-08T10:59:28;15.85;;;15.00;;
6941;SDS011;3510;43.200;27.920;2023-10-08T11:02:02;15.63;;;14.82;;
6941;SDS011;3510;43.200;27.920;2023-10-08T11:04:34;15.68;;;14.80;;
6941;SDS011;3510;43.200;27.920;2023-10-08T11:07:14;15.57;;;14.50;;
6941;SDS011;3510;43.200;27.920;2023-10-08T11:09:43;15.52;;;14.73;;
6941;SDS011;3510;43.200;27.920;2023-10-08T11:12:10;14.00;;;13.25;;
6941;SDS011;3510;43.200;27.920;2023-10-08T11:14:45;13.73;;;13.02;;
6941;SDS011;3510;43.200;27.920;2023-10-08T11:17:13;14.05;;;13.35;;
6941;SDS011;3510;43.200;27.920;2023-10-08T11:19:41;15.45;;;14.20;;
6941;SDS011;3510;43.200;27.920;2023-10-08T11:22:11;15.05;;;14.43;;
6941;SDS011;3510;43.200;27.920;2023-10-08T11:24:43;15.00;;;14.30;;
6941;SDS011;3510;43.200;27.920;2023-10-08T11:27:13;16.10;;;14.82;;
6941;SDS011;3510;43.200;27.920;2023-10-08T11:29:43;16.45;;;15.13;;
6941;SDS011;3510;43.200;27.920;2023-10-08T11:32:11;14.82;;;14.02;;
6941;SDS011;3510;43.200;27.920;2023-10-08T11:34:40;14.23;;;13.63;;
6941;SDS011;3510;43.200;27.920;2023-10-08T11:37:08;13.95;;;13.35;;
6941;SDS011;3510;43.200;27.920;2023-10-08T11:39:47;14.65;;;13.75;;
6941;SDS011;3510;43.200;27.920;2023-10-08T11:42:15;14.82;;;13.90;;
6941;SDS011;3510;43.200;27.920;2023-10-08T11:45:06;15.63;;;14.57;;
6941;SDS011;3510;43.200;27.920;2023-10-08T11:47:44;15.48;;;14.57;;
6941;SDS011;3510;43.200;27.920;2023-10-08T11:50:14;16.40;;;14.95;;
6941;SDS011;3510;43.200;27.920;2023-10-08T11:52:45;14.88;;;14.13;;
6941;SDS011;3510;43.200;27.920;2023-10-08T11:55:13;14.85;;;14.05;;
6941;SDS011;3510;43.200;27.920;2023-10-08T11:57:44;15.15;;;14.32;;
6941;SDS011;3510;43.200;27.920;2023-10-08T12:00:14;15.50;;;14.48;;
6941;SDS011;3510;43.200;27.920;2023-10-08T12:02:51;14.90;;;14.20;;
6941;SDS011;3510;43.200;27.920;2023-10-08T12:05:21;15.80;;;14.48;;
6941;SDS011;3510;43.200;27.920;2023-10-08T12:07:49;15.13;;;14.20;;
6941;SDS011;3510;43.200;27.920;2023-10-08T12:10:19;15.55;;;14.52;;
6941;SDS011;3510;43.200;27.920;2023-10-08T12:12:49;15.48;;;14.60;;
6941;SDS011;3510;43.200;27.920;2023-10-08T12:15:17;15.30;;;14.20;;
6941;SDS011;3510;43.200;27.920;2023-10-08T12:17:46;14.20;;;13.68;;
6941;SDS011;3510;43.200;27.920;2023-10-08T12:20:34;14.20;;;13.50;;
6941;SDS011;3510;43.200;27.920;2023-10-08T12:23:02;15.45;;;14.75;;
6941;SDS011;3510;43.200;27.920;2023-10-08T12:25:31;14.32;;;13.55;;
6941;SDS011;3510;43.200;27.920;2023-10-08T12:27:59;14.98;;;13.98;;
6941;SDS011;3510;43.200;27.920;2023-10-08T12:30:29;15.10;;;14.18;;
6941;SDS011;3510;43.200;27.920;2023-10-08T12:32:58;14.10;;;13.43;;
6941;SDS011;3510;43.200;27.920;2023-10-08T12:35:26;14.43;;;13.73;;
6941;SDS011;3510;43.200;27.920;2023-10-08T12:37:55;13.57;;;13.05;;
6941;SDS011;3510;43.200;27.920;2023-10-08T12:40:22;13.15;;;12.55;;
6941;SDS011;3510;43.200;27.920;2023-10-08T12:42:51;13.93;;;13.00;;
6941;SDS011;3510;43.200;27.920;2023-10-08T12:45:20;14.75;;;13.80;;
6941;SDS011;3510;43.200;27.920;2023-10-08T12:47:47;14.40;;;13.45;;
6941;SDS011;3510;43.200;27.920;2023-10-08T12:50:15;14.70;;;13.52;;
6941;SDS011;3510;43.200;27.920;2023-10-08T12:52:48;14.80;;;13.70;;
6941;SDS011;3510;43.200;27.920;2023-10-08T12:55:20;14.20;;;13.65;;
6941;SDS011;3510;43.200;27.920;2023-10-08T12:57:51;13.93;;;13.25;;
6941;SDS011;3510;43.200;27.920;2023-10-08T13:00:21;14.23;;;13.23;;
6941;SDS011;3510;43.200;27.920;2023-10-08T13:02:51;14.85;;;13.68;;
6941;SDS011;3510;43.200;27.920;2023-10-08T13:05:23;13.68;;;12.77;;
6941;SDS011;3510;43.200;27.920;2023-10-08T13:07:53;14.85;;;13.85;;
6941;SDS011;3510;43.200;27.920;2023-10-08T13:10:22;16.25;;;15.23;;
6941;SDS011;3510;43.200;27.920;2023-10-08T13:12:49;14.13;;;13.52;;
6941;SDS011;3510;43.200;27.920;2023-10-08T13:15:17;14.95;;;14.05;;
6941;SDS011;3510;43.200;27.920;2023-10-08T13:17:44;15.20;;;13.85;;
6941;SDS011;3510;43.200;27.920;2023-10-08T13:20:11;15.02;;;13.80;;
6941;SDS011;3510;43.200;27.920;2023-10-08T13:22:38;14.20;;;13.40;;
6941;SDS011;3510;43.200;27.920;2023-10-08T13:25:05;14.98;;;13.98;;
6941;SDS011;3510;43.200;27.920;2023-10-08T13:27:34;15.63;;;14.63;;
6941;SDS011;3510;43.200;27.920;2023-10-08T13:30:04;15.50;;;14.40;;
6941;SDS011;3510;43.200;27.920;2023-10-08T13:32:35;14.95;;;14.05;;
6941;SDS011;3510;43.200;27.920;2023-10-08T13:35:03;14.60;;;13.90;;
6941;SDS011;3510;43.200;27.920;2023-10-08T13:37:33;14.30;;;13.60;;
6941;SDS011;3510;43.200;27.920;2023-10-08T13:40:00;14.80;;;13.68;;
6941;SDS011;3510;43.200;27.920;2023-10-08T13:42:27;15.48;;;14.40;;
6941;SDS011;3510;43.200;27.920;2023-10-08T13:44:54;13.98;;;13.38;;
6941;SDS011;3510;43.200;27.920;2023-10-08T13:47:24;16.40;;;15.32;;
6941;SDS011;3510;43.200;27.920;2023-10-08T13:49:54;16.10;;;14.80;;
6941;SDS011;3510;43.200;27.920;2023-10-08T13:52:23;15.70;;;14.82;;
6941;SDS011;3510;43.200;27.920;2023-10-08T13:54:51;15.07;;;14.30;;
6941;SDS011;3510;43.200;27.920;2023-10-08T13:57:18;13.82;;;13.38;;
6941;SDS011;3510;43.200;27.920;2023-10-08T13:59:45;14.48;;;13.88;;
6941;SDS011;3510;43.200;27.920;2023-10-08T14:02:13;14.73;;;14.00;;
6941;SDS011;3510;43.200;27.920;2023-10-08T14:04:41;15.20;;;13.90;;
6941;SDS011;3510;43.200;27.920;2023-10-08T14:07:10;15.45;;;13.27;;
6941;SDS011;3510;43.200;27.920;2023-10-08T14:09:41;15.18;;;14.48;;
6941;SDS011;3510;43.200;27.920;2023-10-08T14:12:10;14.73;;;13.73;;
6941;SDS011;3510;43.200;27.920;2023-10-08T14:14:38;14.25;;;13.65;;
6941;SDS011;3510;43.200;27.920;2023-10-08T14:17:08;14.93;;;13.98;;
6941;SDS011;3510;43.200;27.920;2023-10-08T14:19:39;14.93;;;13.38;;
6941;SDS011;3510;43.200;27.920;2023-10-08T14:22:13;14.65;;;13.73;;
6941;SDS011;3510;43.200;27.920;2023-10-08T14:24:40;15.25;;;14.13;;
6941;SDS011;3510;43.200;27.920;2023-10-08T14:27:09;14.75;;;13.70;;
6941;SDS011;3510;43.200;27.920;2023-10-08T14:29:36;15.05;;;13.60;;
6941;SDS011;3510;43.200;27.920;2023-10-08T14:32:06;17.77;;;14.65;;
6941;SDS011;3510;43.200;27.920;2023-10-08T14:34:35;15.45;;;14.45;;
6941;SDS011;3510;43.200;27.920;2023-10-08T14:37:15;14.95;;;13.75;;
6941;SDS011;3510;43.200;27.920;2023-10-08T14:39:54;15.93;;;14.48;;
6941;SDS011;3510;43.200;27.920;2023-10-08T14:42:34;16.02;;;14.85;;
6941;SDS011;3510;43.200;27.920;2023-10-08T14:45:15;15.93;;;14.75;;
6941;SDS011;3510;43.200;27.920;2023-10-08T14:47:44;15.48;;;14.20;;
6941;SDS011;3510;43.200;27.920;2023-10-08T14:50:11;14.50;;;13.73;;
6941;SDS011;3510;43.200;27.920;2023-10-08T14:52:42;15.00;;;13.95;;
6941;SDS011;3510;43.200;27.920;2023-10-08T14:55:09;16.88;;;15.00;;
6941;SDS011;3510;43.200;27.920;2023-10-08T14:57:36;17.88;;;14.18;;
6941;SDS011;3510;43.200;27.920;2023-10-08T15:00:04;14.80;;;13.82;;
6941;SDS011;3510;43.200;27.920;2023-10-08T15:02:31;14.80;;;14.00;;
6941;SDS011;3510;43.200;27.920;2023-10-08T15:04:58;16.05;;;14.80;;
6941;SDS011;3510;43.200;27.920;2023-10-08T15:07:26;13.85;;;13.30;;
6941;SDS011;3510;43.200;27.920;2023-10-08T15:09:54;16.45;;;14.65;;
6941;SDS011;3510;43.200;27.920;2023-10-08T15:12:22;13.95;;;13.25;;
6941;SDS011;3510;43.200;27.920;2023-10-08T15:14:50;16.27;;;14.85;;
6941;SDS011;3510;43.200;27.920;2023-10-08T15:17:17;15.32;;;14.27;;
6941;SDS011;3510;43.200;27.920;2023-10-08T15:19:44;15.55;;;14.32;;
6941;SDS011;3510;43.200;27.920;2023-10-08T15:22:12;19.00;;;16.10;;
6941;SDS011;3510;43.200;27.920;2023-10-08T15:24:38;16.70;;;15.35;;
6941;SDS011;3510;43.200;27.920;2023-10-08T15:27:07;17.45;;;16.17;;
6941;SDS011;3510;43.200;27.920;2023-10-08T15:29:35;18.13;;;16.58;;
6941;SDS011;3510;43.200;27.920;2023-10-08T15:32:02;18.13;;;16.13;;
6941;SDS011;3510;43.200;27.920;2023-10-08T15:34:30;17.88;;;16.40;;
6941;SDS011;3510;43.200;27.920;2023-10-08T15:36:57;15.07;;;13.88;;
6941;SDS011;3510;43.200;27.920;2023-10-08T15:39:24;15.93;;;13.95;;
6941;SDS011;3510;43.200;27.920;2023-10-08T15:41:54;15.57;;;14.18;;
6941;SDS011;3510;43.200;27.920;2023-10-08T15:47:32;14.02;;;13.27;;
6941;SDS011;3510;43.200;27.920;2023-10-08T15:50:13;15.90;;;13.95;;
6941;SDS011;3510;43.200;27.920;2023-10-08T15:52:39;15.50;;;14.13;;
6941;SDS011;3510;43.200;27.920;2023-10-08T15:55:07;14.38;;;13.60;;
6941;SDS011;3510;43.200;27.920;2023-10-08T15:57:36;14.55;;;13.95;;
6941;SDS011;3510;43.200;27.920;2023-10-08T16:00:03;15.05;;;14.18;;
6941;SDS011;3510;43.200;27.920;2023-10-08T16:02:32;15.27;;;14.27;;
6941;SDS011;3510;43.200;27.920;2023-10-08T16:04:59;16.10;;;14.93;;
6941;SDS011;3510;43.200;27.920;2023-10-08T16:07:28;15.05;;;13.70;;
6941;SDS011;3510;43.200;27.920;2023-10-08T16:09:56;14.75;;;14.05;;
6941;SDS011;3510;43.200;27.920;2023-10-08T16:12:22;14.50;;;13.52;;
6941;SDS011;3510;43.200;27.920;2023-10-08T16:14:49;13.82;;;13.23;;
6941;SDS011;3510;43.200;27.920;2023-10-08T16:17:16;14.85;;;13.40;;
6941;SDS011;3510;43.200;27.920;2023-10-08T16:19:46;13.68;;;12.90;;
6941;SDS011;3510;43.200;27.920;2023-10-08T16:22:13;15.32;;;13.65;;
6941;SDS011;3510;43.200;27.920;2023-10-08T16:24:39;35.65;;;14.02;;
6941;SDS011;3510;43.200;27.920;2023-10-08T16:27:06;34.53;;;13.73;;
6941;SDS011;3510;43.200;27.920;2023-10-08T16:29:33;32.17;;;12.98;;
6941;SDS011;3510;43.200;27.920;2023-10-08T16:32:01;13.38;;;11.20;;
6941;SDS011;3510;43.200;27.920;2023-10-08T16:34:28;27.30;;;11.85;;
6941;SDS011;3510;43.200;27.920;2023-10-08T16:36:57;19.45;;;11.85;;
6941;SDS011;3510;43.200;27.920;2023-10-08T16:39:24;29.98;;;11.60;;
6941;SDS011;3510;43.200;27.920;2023-10-08T16:41:51;17.15;;;9.75;;
6941;SDS011;3510;43.200;27.920;2023-10-08T16:44:18;18.52;;;9.48;;
6941;SDS011;3510;43.200;27.920;2023-10-08T16:46:47;12.60;;;9.75;;
6941;SDS011;3510;43.200;27.920;2023-10-08T16:49:14;26.90;;;8.18;;
6941;SDS011;3510;43.200;27.920;2023-10-08T16:51:41;23.92;;;8.65;;
6941;SDS011;3510;43.200;27.920;2023-10-08T16:54:09;34.33;;;8.77;;
6941;SDS011;3510;43.200;27.920;2023-10-08T16:56:40;19.88;;;7.63;;
6941;SDS011;3510;43.200;27.920;2023-10-08T16:59:07;31.65;;;7.35;;
6941;SDS011;3510;43.200;27.920;2023-10-08T17:01:36;21.40;;;5.68;;
6941;SDS011;3510;43.200;27.920;2023-10-08T17:04:04;24.30;;;5.95;;
6941;SDS011;3510;43.200;27.920;2023-10-08T17:06:32;14.18;;;5.38;;
6941;SDS011;3510;43.200;27.920;2023-10-08T17:08:59;15.35;;;3.50;;
6941;SDS011;3510;43.200;27.920;2023-10-08T17:11:27;14.23;;;2.92;;
6941;SDS011;3510;43.200;27.920;2023-10-08T17:13:54;9.65;;;3.08;;
6941;SDS011;3510;43.200;27.920;2023-10-08T17:16:20;14.10;;;3.22;;
6941;SDS011;3510;43.200;27.920;2023-10-08T17:18:48;9.13;;;2.67;;
6941;SDS011;3510;43.200;27.920;2023-10-08T17:21:15;23.58;;;3.55;;
6941;SDS011;3510;43.200;27.920;2023-10-08T17:23:43;8.77;;;3.15;;
6941;SDS011;3510;43.200;27.920;2023-10-08T17:26:10;10.52;;;2.63;;
6941;SDS011;3510;43.200;27.920;2023-10-08T17:28:40;17.92;;;3.10;;
6941;SDS011;3510;43.200;27.920;2023-10-08T17:33:36;9.25;;;3.13;;
6941;SDS011;3510;43.200;27.920;2023-10-08T17:36:05;13.05;;;2.75;;
6941;SDS011;3510;43.200;27.920;2023-10-08T17:41:00;8.23;;;2.70;;
6941;SDS011;3510;43.200;27.920;2023-10-08T17:43:26;10.80;;;2.40;;
6941;SDS011;3510;43.200;27.920;2023-10-08T17:45:54;7.40;;;2.30;;
6941;SDS011;3510;43.200;27.920;2023-10-08T17:48:22;5.57;;;2.20;;
6941;SDS011;3510;43.200;27.920;2023-10-08T17:50:49;1.65;;;1.63;;
6941;SDS011;3510;43.200;27.920;2023-10-08T17:53:17;9.32;;;1.65;;
6941;SDS011;3510;43.200;27.920;2023-10-08T17:55:45;4.10;;;2.13;;
6941;SDS011;3510;43.200;27.920;2023-10-08T17:58:12;6.35;;;2.08;;
6941;SDS011;3510;43.200;27.920;2023-10-08T18:00:41;1.92;;;1.83;;
6941;SDS011;3510;43.200;27.920;2023-10-08T18:03:10;1.85;;;1.75;;
6941;SDS011;3510;43.200;27.920;2023-10-08T18:05:38;9.63;;;1.40;;
6941;SDS011;3510;43.200;27.920;2023-10-08T18:08:05;5.88;;;2.03;;
6941;SDS011;3510;43.200;27.920;2023-10-08T18:10:36;4.73;;;2.13;;
